createdAt,value
2018-06-28T00:00:34.074Z,4.63
2018-06-28T00:03:02.199Z,3.93
2018-06-28T00:05:30.340Z,3.90
2018-06-28T00:07:58.436Z,3.73
2018-06-28T00:10:26.550Z,3.40
2018-06-28T00:12:54.476Z,4.07
2018-06-28T00:15:22.596Z,4.07
2018-06-28T00:17:50.689Z,4.90
2018-06-28T00:20:18.801Z,4.43
2018-06-28T00:22:46.916Z,4.20
2018-06-28T00:25:15.046Z,3.70
2018-06-28T00:27:43.161Z,4.80
2018-06-28T00:30:11.276Z,4.30
2018-06-28T00:32:39.363Z,3.93
2018-06-28T00:35:08.839Z,3.80
2018-06-28T00:37:36.952Z,4.50
2018-06-28T00:40:05.255Z,3.90
2018-06-28T00:42:33.354Z,4.47
2018-06-28T00:45:01.459Z,5.30
2018-06-28T00:47:29.573Z,4.40
2018-06-28T00:49:57.670Z,5.27
2018-06-28T00:52:25.775Z,4.07
2018-06-28T00:54:53.889Z,4.70
2018-06-28T00:57:21.999Z,5.03
2018-06-28T00:59:50.135Z,4.23
2018-06-28T01:02:18.250Z,4.33
2018-06-28T01:04:46.360Z,4.50
2018-06-28T01:07:14.467Z,3.77
2018-06-28T01:09:42.599Z,4.53
2018-06-28T01:12:10.692Z,4.37
2018-06-28T01:14:38.803Z,4.30
2018-06-28T01:17:06.941Z,4.13
2018-06-28T01:19:35.048Z,4.57
2018-06-28T01:22:03.168Z,3.97
2018-06-28T01:24:31.270Z,4.50
2018-06-28T01:26:59.410Z,4.10
2018-06-28T01:29:27.536Z,4.93
2018-06-28T01:31:55.642Z,4.50
2018-06-28T01:34:23.763Z,4.37
2018-06-28T01:36:51.854Z,4.30
2018-06-28T01:39:19.959Z,4.80
2018-06-28T01:41:59.559Z,4.47
2018-06-28T01:44:27.655Z,5.30
2018-06-28T01:46:55.788Z,4.30
2018-06-28T01:49:23.859Z,4.80
2018-06-28T01:51:51.966Z,5.17
2018-06-28T01:54:20.081Z,5.47
2018-06-28T01:56:48.186Z,4.30
2018-06-28T01:59:16.294Z,5.20
2018-06-28T02:01:44.424Z,4.57
2018-06-28T02:04:12.541Z,4.50
2018-06-28T02:06:40.660Z,5.57
2018-06-28T02:09:09.683Z,5.67
2018-06-28T02:11:37.811Z,5.33
2018-06-28T02:14:06.152Z,4.83
2018-06-28T02:16:34.338Z,4.83
2018-06-28T02:19:02.468Z,5.33
2018-06-28T02:21:30.596Z,4.83
2018-06-28T02:23:58.707Z,4.60
2018-06-28T02:26:26.847Z,5.77
2018-06-28T02:28:54.992Z,4.93
2018-06-28T02:31:23.126Z,4.97
2018-06-28T02:33:51.247Z,4.87
2018-06-28T02:36:19.360Z,5.37
2018-06-28T02:38:47.477Z,4.10
2018-06-28T02:41:15.595Z,4.77
2018-06-28T02:43:43.717Z,4.50
2018-06-28T02:46:11.849Z,4.80
2018-06-28T02:48:40.003Z,5.00
2018-06-28T02:51:08.115Z,5.70
2018-06-28T02:53:36.234Z,4.40
2018-06-28T02:56:04.310Z,5.27
2018-06-28T02:58:32.424Z,4.70
2018-06-28T03:01:00.562Z,4.50
2018-06-28T03:03:28.476Z,4.87
2018-06-28T03:05:56.598Z,4.90
2018-06-28T03:08:24.711Z,4.90
2018-06-28T03:10:52.828Z,4.20
2018-06-28T03:13:20.948Z,5.80
2018-06-28T03:15:49.060Z,5.20
2018-06-28T03:18:17.196Z,6.90
2018-06-28T03:20:45.312Z,5.30
2018-06-28T03:23:13.439Z,4.77
2018-06-28T03:25:41.539Z,5.00
2018-06-28T03:28:09.697Z,5.10
2018-06-28T03:30:37.808Z,5.20
2018-06-28T03:33:05.919Z,4.40
2018-06-28T03:35:34.035Z,5.40
2018-06-28T03:38:02.200Z,4.83
2018-06-28T03:40:30.291Z,4.90
2018-06-28T03:42:58.416Z,5.17
2018-06-28T03:45:30.256Z,4.77
2018-06-28T03:47:58.415Z,5.60
2018-06-28T03:50:26.508Z,5.20
2018-06-28T03:52:54.616Z,5.40
2018-06-28T03:55:22.715Z,5.77
2018-06-28T03:57:50.828Z,5.10
2018-06-28T04:00:18.947Z,5.93
2018-06-28T04:02:47.671Z,4.80
2018-06-28T04:05:15.795Z,5.20
2018-06-28T04:07:43.912Z,6.93
2018-06-28T04:10:12.021Z,5.80
2018-06-28T04:12:40.288Z,6.07
2018-06-28T04:15:08.411Z,6.13
2018-06-28T04:17:36.528Z,6.00
2018-06-28T04:20:04.674Z,6.20
2018-06-28T04:22:32.789Z,5.93
2018-06-28T04:25:00.915Z,5.70
2018-06-28T04:27:29.504Z,5.83
2018-06-28T04:29:58.031Z,4.73
2018-06-28T04:32:26.139Z,6.50
2018-06-28T04:34:54.255Z,5.53
2018-06-28T04:37:22.414Z,5.20
2018-06-28T04:39:50.558Z,4.73
2018-06-28T04:42:18.676Z,5.73
2018-06-28T04:44:46.807Z,5.97
2018-06-28T04:47:14.926Z,5.30
2018-06-28T04:49:43.114Z,6.40
2018-06-28T04:52:11.216Z,6.03
2018-06-28T04:54:39.335Z,6.73
2018-06-28T04:57:07.523Z,5.87
2018-06-28T04:59:35.676Z,6.30
2018-06-28T05:02:03.819Z,6.27
2018-06-28T05:04:31.940Z,6.10
2018-06-28T05:07:00.102Z,6.73
2018-06-28T05:09:28.319Z,7.03
2018-06-28T05:11:56.435Z,6.00
2018-06-28T05:14:24.565Z,5.97
2018-06-28T05:16:52.685Z,6.27
2018-06-28T05:19:20.792Z,6.27
2018-06-28T05:21:48.898Z,6.27
2018-06-28T05:24:17.001Z,5.90
2018-06-28T05:26:45.111Z,5.53
2018-06-28T05:29:13.323Z,5.60
2018-06-28T05:31:41.387Z,5.20
2018-06-28T05:34:09.567Z,5.67
2018-06-28T05:36:37.670Z,5.20
2018-06-28T05:39:07.811Z,5.20
2018-06-28T05:41:35.911Z,6.17
2018-06-28T05:44:04.138Z,5.73
2018-06-28T05:46:32.191Z,6.60
2018-06-28T05:49:00.094Z,5.90
2018-06-28T05:51:28.219Z,4.73
2018-06-28T05:53:56.363Z,5.33
2018-06-28T05:56:24.479Z,5.13
2018-06-28T05:58:52.588Z,4.40
2018-06-28T06:01:20.696Z,4.77
2018-06-28T06:03:48.809Z,4.03
2018-06-28T06:06:16.915Z,4.53
2018-06-28T06:08:45.042Z,5.43
2018-06-28T06:11:13.138Z,4.93
2018-06-28T06:13:41.252Z,6.20
2018-06-28T06:16:09.464Z,4.27
2018-06-28T06:18:37.576Z,3.27
2018-06-28T06:21:05.731Z,4.20
2018-06-28T06:23:33.855Z,4.43
2018-06-28T06:26:01.973Z,3.90
2018-06-28T06:28:30.094Z,4.20
2018-06-28T06:30:58.231Z,4.43
2018-06-28T06:33:26.465Z,4.30
2018-06-28T06:35:54.615Z,5.40
2018-06-28T06:38:22.751Z,4.00
2018-06-28T06:40:50.883Z,4.20
2018-06-28T06:43:19.012Z,4.53
2018-06-28T06:45:47.207Z,3.77
2018-06-28T06:48:15.335Z,3.83
2018-06-28T06:50:43.459Z,4.27
2018-06-28T06:53:11.585Z,4.67
2018-06-28T06:55:39.728Z,3.10
2018-06-28T06:58:07.852Z,4.70
2018-06-28T07:00:35.993Z,4.20
2018-06-28T07:03:04.500Z,4.60
2018-06-28T07:05:32.639Z,4.40
2018-06-28T07:08:00.772Z,3.33
2018-06-28T07:10:29.032Z,4.20
2018-06-28T07:12:57.082Z,4.37
2018-06-28T07:15:25.188Z,4.27
2018-06-28T07:17:53.314Z,4.03
2018-06-28T07:20:21.444Z,4.40
2018-06-28T07:22:49.646Z,3.93
2018-06-28T07:25:17.656Z,4.50
2018-06-28T07:27:45.785Z,3.67
2018-06-28T07:30:13.972Z,3.53
2018-06-28T07:32:42.083Z,4.20
2018-06-28T07:35:10.208Z,4.80
2018-06-28T07:37:38.315Z,4.33
2018-06-28T07:40:06.450Z,4.17
2018-06-28T07:42:34.568Z,4.10
2018-06-28T07:45:02.693Z,3.40
2018-06-28T07:47:30.806Z,4.53
2018-06-28T07:49:58.890Z,3.63
2018-06-28T07:52:27.046Z,3.47
2018-06-28T07:54:55.151Z,3.90
2018-06-28T07:57:23.260Z,4.00
2018-06-28T07:59:51.367Z,4.20
2018-06-28T08:02:19.462Z,3.67
2018-06-28T08:04:47.599Z,3.70
2018-06-28T08:07:15.718Z,3.93
2018-06-28T08:09:43.846Z,3.50
2018-06-28T08:12:12.063Z,3.60
2018-06-28T08:14:40.160Z,3.93
2018-06-28T08:17:08.360Z,4.80
2018-06-28T08:19:37.243Z,3.63
2018-06-28T08:22:05.378Z,3.50
2018-06-28T08:24:33.486Z,3.50
2018-06-28T08:27:01.647Z,4.00
2018-06-28T08:29:29.748Z,3.30
2018-06-28T08:31:57.860Z,3.50
2018-06-28T08:34:26.008Z,3.50
2018-06-28T08:36:54.223Z,3.23
2018-06-28T08:39:22.427Z,3.70
2018-06-28T08:41:50.543Z,3.60
2018-06-28T08:44:19.330Z,3.70
2018-06-28T08:46:47.468Z,3.53
2018-06-28T08:49:15.585Z,2.80
2018-06-28T08:51:43.896Z,3.80
2018-06-28T08:54:12.107Z,3.50
2018-06-28T08:56:40.287Z,3.27
2018-06-28T08:59:08.463Z,3.23
2018-06-28T09:01:36.632Z,4.30
2018-06-28T09:04:04.827Z,3.60
2018-06-28T09:06:32.951Z,3.33
2018-06-28T09:09:01.243Z,3.73
2018-06-28T09:11:29.351Z,3.63
2018-06-28T09:13:57.539Z,3.00
2018-06-28T09:16:25.674Z,3.37
2018-06-28T09:18:54.200Z,3.50
2018-06-28T09:21:22.318Z,3.57
2018-06-28T09:23:50.455Z,3.67
2018-06-28T09:29:12.107Z,3.23
2018-06-28T09:31:40.255Z,3.43
2018-06-28T09:34:08.418Z,3.90
2018-06-28T09:36:36.546Z,3.20
2018-06-28T09:39:07.587Z,3.63
2018-06-28T09:41:35.528Z,3.00
2018-06-28T09:44:03.719Z,3.60
2018-06-28T09:46:31.825Z,3.00
2018-06-28T09:48:59.952Z,4.17
2018-06-28T09:51:28.105Z,3.27
2018-06-28T09:53:56.223Z,3.13
2018-06-28T09:56:24.327Z,3.40
2018-06-28T09:58:52.481Z,3.20
2018-06-28T10:01:20.722Z,3.10
2018-06-28T10:03:48.870Z,3.10
2018-06-28T10:06:16.991Z,3.00
2018-06-28T10:08:45.107Z,3.10
2018-06-28T10:11:13.256Z,3.10
2018-06-28T10:13:41.178Z,3.50
2018-06-28T10:16:09.315Z,3.50
2018-06-28T10:18:37.646Z,3.03
2018-06-28T10:21:06.055Z,3.50
2018-06-28T10:23:34.220Z,3.50
2018-06-28T10:26:02.373Z,2.50
2018-06-28T10:28:30.551Z,3.37
2018-06-28T10:30:58.736Z,3.10
2018-06-28T10:33:26.883Z,3.60
2018-06-28T10:35:54.995Z,3.50
2018-06-28T10:38:23.142Z,3.50
2018-06-28T10:40:51.287Z,3.50
2018-06-28T10:43:19.532Z,3.60
2018-06-28T10:45:47.653Z,3.63
2018-06-28T10:48:15.917Z,3.30
2018-06-28T10:50:44.172Z,3.40
2018-06-28T10:53:12.334Z,3.10
2018-06-28T10:55:40.270Z,3.10
2018-06-28T10:58:08.475Z,2.80
2018-06-28T11:00:36.595Z,3.50
2018-06-28T11:03:04.909Z,3.13
2018-06-28T11:05:33.047Z,3.07
2018-06-28T11:08:01.171Z,3.30
2018-06-28T11:10:29.298Z,2.70
2018-06-28T11:12:57.420Z,3.83
2018-06-28T11:15:25.547Z,3.77
2018-06-28T11:17:53.660Z,3.10
2018-06-28T11:20:21.778Z,3.30
2018-06-28T11:22:49.889Z,3.67
2018-06-28T11:25:17.998Z,3.50
2018-06-28T11:27:46.108Z,2.57
2018-06-28T11:30:14.293Z,3.37
2018-06-28T11:32:42.404Z,2.87
2018-06-28T11:35:10.519Z,3.00
2018-06-28T11:37:38.632Z,3.00
2018-06-28T11:40:06.734Z,2.83
2018-06-28T11:42:35.020Z,3.27
2018-06-28T11:45:03.124Z,3.03
2018-06-28T11:47:31.233Z,2.80
2018-06-28T11:49:59.334Z,3.00
2018-06-28T11:52:27.490Z,2.90
2018-06-28T11:54:55.594Z,2.80
2018-06-28T11:57:23.703Z,2.77
2018-06-28T11:59:51.807Z,2.90
2018-06-28T12:02:39.738Z,2.27
2018-06-28T12:05:07.851Z,3.20
2018-06-28T12:07:35.974Z,2.77
2018-06-28T12:10:04.359Z,3.10
2018-06-28T12:12:32.475Z,2.77
2018-06-28T12:15:00.595Z,2.53
2018-06-28T12:17:28.718Z,2.67
2018-06-28T12:19:56.850Z,2.53
2018-06-28T12:22:25.048Z,3.03
2018-06-28T12:24:53.110Z,2.87
2018-06-28T12:27:21.232Z,2.67
2018-06-28T12:29:49.354Z,2.13
2018-06-28T12:32:17.470Z,2.67
2018-06-28T12:34:45.642Z,2.20
2018-06-28T12:37:13.766Z,2.30
2018-06-28T12:39:41.943Z,2.20
2018-06-28T12:42:10.092Z,2.53
2018-06-28T12:44:38.212Z,2.30
2018-06-28T12:47:44.422Z,2.63
2018-06-28T12:50:12.544Z,2.80
2018-06-28T12:52:43.835Z,3.00
2018-06-28T12:55:13.234Z,3.03
2018-06-28T12:57:41.394Z,2.50
2018-06-28T13:00:09.600Z,2.57
2018-06-28T13:02:37.771Z,2.97
2018-06-28T13:05:06.089Z,2.83
2018-06-28T13:07:34.226Z,2.53
2018-06-28T13:10:02.494Z,2.60
2018-06-28T13:12:30.905Z,2.90
2018-06-28T13:14:59.026Z,2.63
2018-06-28T13:17:27.151Z,2.60
2018-06-28T13:19:55.292Z,2.40
2018-06-28T13:22:23.416Z,2.60
2018-06-28T13:24:51.541Z,3.07
2018-06-28T13:27:19.684Z,3.27
2018-06-28T13:29:47.802Z,3.30
2018-06-28T13:32:16.205Z,2.20
2018-06-28T13:34:44.339Z,2.23
2018-06-28T13:37:12.476Z,3.03
2018-06-28T13:39:41.039Z,3.10
2018-06-28T13:42:09.297Z,2.87
2018-06-28T13:44:37.339Z,3.90
2018-06-28T13:47:05.587Z,4.50
2018-06-28T13:49:33.719Z,4.00
2018-06-28T13:52:01.887Z,3.07
2018-06-28T13:54:30.011Z,2.60
2018-06-28T13:56:58.143Z,2.70
2018-06-28T13:59:26.318Z,2.50
2018-06-28T14:01:54.447Z,2.57
2018-06-28T14:04:22.569Z,2.60
2018-06-28T14:06:50.682Z,2.80
2018-06-28T14:09:18.851Z,2.70
2018-06-28T14:11:46.937Z,2.23
2018-06-28T14:14:15.169Z,2.13
2018-06-28T14:16:43.290Z,2.10
2018-06-28T14:19:11.415Z,2.90
2018-06-28T14:21:39.556Z,2.10
2018-06-28T14:24:07.676Z,1.90
2018-06-28T14:26:35.779Z,2.50
2018-06-28T14:29:03.894Z,2.60
2018-06-28T14:31:32.012Z,2.47
2018-06-28T14:34:00.143Z,2.30
2018-06-28T14:36:28.247Z,2.30
2018-06-28T14:38:56.359Z,2.63
2018-06-28T14:41:24.479Z,2.30
2018-06-28T14:43:52.599Z,2.37
2018-06-28T14:46:20.706Z,2.40
2018-06-28T14:48:48.811Z,2.63
2018-06-28T14:51:16.925Z,2.50
2018-06-28T14:53:45.064Z,2.10
2018-06-28T14:56:13.162Z,2.73
2018-06-28T14:58:41.384Z,2.87
2018-06-28T15:01:09.419Z,2.20
2018-06-28T15:03:37.535Z,2.20
2018-06-28T15:06:05.634Z,2.23
2018-06-28T15:08:33.763Z,2.13
2018-06-28T15:11:01.863Z,2.27
2018-06-28T15:13:29.975Z,2.70
2018-06-28T15:15:58.071Z,2.20
2018-06-28T15:18:26.170Z,2.43
2018-06-28T15:20:54.283Z,2.33
2018-06-28T15:23:22.426Z,2.00
2018-06-28T15:25:50.519Z,2.17
2018-06-28T15:28:18.623Z,2.70
2018-06-28T15:30:46.731Z,1.90
2018-06-28T15:33:15.011Z,1.93
2018-06-28T15:35:42.972Z,2.07
2018-06-28T15:38:11.099Z,1.90
2018-06-28T15:40:39.210Z,2.57
2018-06-28T15:43:07.342Z,2.10
2018-06-28T15:45:35.454Z,2.03
2018-06-28T15:50:57.127Z,2.50
2018-06-28T15:53:25.302Z,2.00
2018-06-28T15:55:53.398Z,2.20
2018-06-28T15:58:22.373Z,2.20
2018-06-28T16:00:50.598Z,2.67
2018-06-28T16:03:18.722Z,1.93
2018-06-28T16:05:47.015Z,2.40
2018-06-28T16:08:15.102Z,2.57
2018-06-28T16:10:43.266Z,2.10
2018-06-28T16:13:11.375Z,2.00
2018-06-28T16:15:39.483Z,2.23
2018-06-28T16:18:07.597Z,2.40
2018-06-28T16:20:35.723Z,2.17
2018-06-28T16:23:03.845Z,2.50
2018-06-28T16:25:31.975Z,2.70
2018-06-28T16:28:00.123Z,2.73
2018-06-28T16:30:28.258Z,2.90
2018-06-28T16:32:56.391Z,3.00
2018-06-28T16:35:24.523Z,3.10
2018-06-28T16:37:52.663Z,3.27
2018-06-28T16:40:20.817Z,3.00
2018-06-28T16:42:48.987Z,2.93
2018-06-28T16:45:17.124Z,2.83
2018-06-28T16:47:45.339Z,3.63
2018-06-28T16:50:13.759Z,4.07
2018-06-28T16:52:41.879Z,3.87
2018-06-28T16:55:10.056Z,5.20
2018-06-28T16:57:38.163Z,5.53
2018-06-28T17:00:07.568Z,5.87
2018-06-28T17:02:35.692Z,7.10
2018-06-28T17:05:04.151Z,5.50
2018-06-28T17:07:32.291Z,5.97
2018-06-28T17:10:00.432Z,5.70
2018-06-28T17:12:28.571Z,6.40
2018-06-28T17:14:56.680Z,5.90
2018-06-28T17:17:24.807Z,5.23
2018-06-28T17:19:52.958Z,5.53
2018-06-28T17:22:21.094Z,6.33
2018-06-28T17:24:49.214Z,5.37
2018-06-28T17:27:17.367Z,4.50
2018-06-28T17:29:45.524Z,5.80
2018-06-28T17:32:13.655Z,4.73
2018-06-28T17:34:41.773Z,3.57
2018-06-28T17:37:09.888Z,3.50
2018-06-28T17:39:38.024Z,3.47
2018-06-28T17:42:06.170Z,3.00
2018-06-28T17:44:34.287Z,2.93
2018-06-28T17:47:02.802Z,3.30
2018-06-28T17:49:30.924Z,3.10
2018-06-28T17:51:59.035Z,3.17
2018-06-28T17:54:27.161Z,3.23
2018-06-28T17:56:55.288Z,2.53
2018-06-28T17:59:23.405Z,3.00
2018-06-28T18:01:51.528Z,3.10
2018-06-28T18:04:19.696Z,2.20
2018-06-28T18:06:47.842Z,2.80
2018-06-28T18:09:16.026Z,2.70
2018-06-28T18:11:44.087Z,2.57
2018-06-28T18:14:12.204Z,2.87
2018-06-28T18:16:40.357Z,2.70
2018-06-28T18:19:08.482Z,2.67
2018-06-28T18:21:36.635Z,2.13
2018-06-28T18:24:04.763Z,2.67
2018-06-28T18:26:32.940Z,2.30
2018-06-28T18:29:01.216Z,2.33
2018-06-28T18:31:29.337Z,2.40
2018-06-28T18:33:57.562Z,2.83
2018-06-28T18:36:25.687Z,2.83
2018-06-28T18:38:53.810Z,2.43
2018-06-28T18:41:21.934Z,2.63
2018-06-28T18:43:50.062Z,2.53
2018-06-28T18:46:18.162Z,2.20
2018-06-28T18:48:46.326Z,2.63
2018-06-28T18:51:14.492Z,2.50
2018-06-28T18:53:42.615Z,2.73
2018-06-28T18:56:10.836Z,2.40
2018-06-28T18:58:38.979Z,2.70
2018-06-28T19:01:07.102Z,2.70
2018-06-28T19:03:35.291Z,3.03
2018-06-28T19:06:03.467Z,2.40
2018-06-28T19:08:31.590Z,3.17
2018-06-28T19:10:59.751Z,2.73
2018-06-28T19:13:28.455Z,2.40
2018-06-28T19:16:02.219Z,2.23
2018-06-28T19:18:30.479Z,2.37
2018-06-28T19:21:04.082Z,2.37
2018-06-28T19:23:37.418Z,3.03
2018-06-28T19:26:05.551Z,2.60
2018-06-28T19:28:33.678Z,2.40
2018-06-28T19:31:07.298Z,2.47
2018-06-28T19:33:35.394Z,2.43
2018-06-28T19:36:03.507Z,2.30
2018-06-28T19:38:37.122Z,2.47
2018-06-28T19:41:10.865Z,3.33
2018-06-28T19:43:38.978Z,2.70
2018-06-28T19:46:07.075Z,2.80
2018-06-28T19:48:35.240Z,3.30
2018-06-28T19:51:08.711Z,2.70
2018-06-28T19:53:36.871Z,2.50
2018-06-28T19:56:05.012Z,3.10
2018-06-28T19:58:33.131Z,2.67
2018-06-28T20:01:06.687Z,2.93
2018-06-28T20:03:40.332Z,3.10
2018-06-28T20:06:08.430Z,2.97
2018-06-28T20:08:36.549Z,2.73
2018-06-28T20:11:04.663Z,3.03
2018-06-28T20:13:38.328Z,2.43
2018-06-28T20:16:11.956Z,3.03
2018-06-28T20:18:45.434Z,3.07
2018-06-28T20:21:13.668Z,3.00
2018-06-28T20:23:41.718Z,2.50
2018-06-28T20:26:15.386Z,3.10
2018-06-28T20:28:48.959Z,2.93
2018-06-28T20:31:22.473Z,3.40
2018-06-28T20:33:56.158Z,3.23
2018-06-28T20:36:24.268Z,3.37
2018-06-28T20:38:52.406Z,3.07
2018-06-28T20:41:20.575Z,3.43
2018-06-28T20:43:56.252Z,3.30
2018-06-28T20:46:24.386Z,4.23
2018-06-28T20:48:52.507Z,3.47
2018-06-28T20:51:20.631Z,3.70
2018-06-28T20:53:48.814Z,2.70
2018-06-28T20:56:16.938Z,3.30
2018-06-28T20:58:46.113Z,3.10
2018-06-28T21:01:14.239Z,3.47
2018-06-28T21:03:42.346Z,4.00
2018-06-28T21:06:10.548Z,3.60
2018-06-28T21:08:39.012Z,3.80
2018-06-28T21:11:07.721Z,3.70
2018-06-28T21:13:36.178Z,2.90
2018-06-28T21:16:04.830Z,3.83
2018-06-28T21:18:33.019Z,3.70
2018-06-28T21:21:01.182Z,3.33
2018-06-28T21:23:29.294Z,3.70
2018-06-28T21:25:57.439Z,3.40
2018-06-28T21:28:25.567Z,3.30
2018-06-28T21:30:53.674Z,3.37
2018-06-28T21:33:21.819Z,3.53
2018-06-28T21:35:49.954Z,3.40
2018-06-28T21:38:18.088Z,3.47
2018-06-28T21:40:46.232Z,3.40
2018-06-28T21:43:21.243Z,3.50
2018-06-28T21:45:49.354Z,3.43
2018-06-28T21:48:17.504Z,3.60
2018-06-28T21:50:45.635Z,3.10
2018-06-28T21:53:13.751Z,3.40
2018-06-28T21:55:41.861Z,3.00
2018-06-28T21:58:09.985Z,4.43
2018-06-28T22:00:38.702Z,3.67
2018-06-28T22:03:07.888Z,3.60
2018-06-28T22:05:36.070Z,3.60
2018-06-28T22:08:04.918Z,3.93
2018-06-28T22:10:32.968Z,3.50
2018-06-28T22:13:01.099Z,4.73
2018-06-28T22:15:30.299Z,4.53
2018-06-28T22:18:01.641Z,3.90
2018-06-28T22:20:30.638Z,4.60
2018-06-28T22:22:58.777Z,4.87
2018-06-28T22:25:28.112Z,4.73
2018-06-28T22:27:56.254Z,4.40
2018-06-28T22:30:24.773Z,4.83
2018-06-28T22:32:52.966Z,4.30
2018-06-28T22:35:21.097Z,4.20
2018-06-28T22:37:49.361Z,4.60
2018-06-28T22:40:17.779Z,3.40
2018-06-28T22:42:45.970Z,4.63
2018-06-28T22:45:14.088Z,4.13
2018-06-28T22:47:42.198Z,4.97
2018-06-28T22:50:10.322Z,3.77
2018-06-28T22:52:38.458Z,4.20
2018-06-28T22:55:06.581Z,4.40
2018-06-28T22:57:34.744Z,4.57
2018-06-28T23:00:02.863Z,4.10
2018-06-28T23:02:30.986Z,4.20
2018-06-28T23:04:59.115Z,4.30
2018-06-28T23:07:27.285Z,4.30
2018-06-28T23:09:55.423Z,3.57
2018-06-28T23:12:23.537Z,4.70
2018-06-28T23:14:51.656Z,4.80
2018-06-28T23:17:19.807Z,4.00
2018-06-28T23:19:47.938Z,4.70
2018-06-28T23:22:27.614Z,5.47
2018-06-28T23:24:55.713Z,4.80
2018-06-28T23:27:23.826Z,4.43
2018-06-28T23:29:52.010Z,3.70
2018-06-28T23:32:20.142Z,4.30
2018-06-28T23:34:48.314Z,4.10
2018-06-28T23:37:16.562Z,4.17
2018-06-28T23:39:44.617Z,5.23
2018-06-28T23:42:12.743Z,3.83
2018-06-28T23:44:40.849Z,4.27
2018-06-28T23:47:09.006Z,4.53
2018-06-28T23:49:37.094Z,4.50
2018-06-28T23:52:05.270Z,4.70
2018-06-28T23:54:33.444Z,4.90
2018-06-28T23:57:01.499Z,5.13
2018-06-28T23:59:29.588Z,4.73
